createdAt,value
2019-05-14T00:01:08.347Z,15.00
2019-05-14T00:03:37.258Z,15.00
2019-05-14T00:06:04.871Z,15.00
2019-05-14T00:08:32.471Z,15.00
2019-05-14T00:11:01.459Z,14.90
2019-05-14T00:13:29.202Z,14.90
2019-05-14T00:15:57.022Z,14.90
2019-05-14T00:18:25.281Z,14.90
2019-05-14T00:20:53.509Z,14.90
2019-05-14T00:23:21.702Z,14.80
2019-05-14T00:25:49.521Z,14.80
2019-05-14T00:28:17.084Z,14.80
2019-05-14T00:30:44.775Z,14.80
2019-05-14T00:33:12.606Z,14.80
2019-05-14T00:35:41.351Z,14.70
2019-05-14T00:38:09.217Z,14.70
2019-05-14T00:40:37.137Z,14.70
2019-05-14T00:43:04.924Z,14.70
2019-05-14T00:45:32.994Z,14.70
2019-05-14T00:48:01.526Z,14.60
2019-05-14T00:50:31.529Z,14.60
2019-05-14T00:52:59.031Z,14.60
2019-05-14T00:55:26.251Z,14.60
2019-05-14T00:57:54.063Z,14.50
2019-05-14T01:00:22.161Z,14.50
2019-05-14T01:02:51.808Z,14.50
2019-05-14T01:05:21.388Z,14.40
2019-05-14T01:07:51.220Z,14.40
2019-05-14T01:10:18.724Z,14.40
2019-05-14T01:12:46.255Z,14.40
2019-05-14T01:15:14.394Z,14.40
2019-05-14T01:17:42.273Z,14.40
2019-05-14T01:20:12.304Z,14.40
2019-05-14T01:22:42.157Z,14.30
2019-05-14T01:25:11.812Z,14.30
2019-05-14T01:27:41.119Z,14.30
2019-05-14T01:30:08.661Z,14.30
2019-05-14T01:32:36.100Z,14.30
2019-05-14T01:35:03.727Z,14.30
2019-05-14T01:37:31.300Z,14.20
2019-05-14T01:40:01.033Z,14.30
2019-05-14T01:42:28.549Z,14.20
2019-05-14T01:44:56.151Z,14.20
2019-05-14T01:47:24.345Z,14.20
2019-05-14T01:49:51.982Z,14.20
2019-05-14T01:52:21.744Z,14.10
2019-05-14T01:54:51.568Z,14.10
2019-05-14T01:57:19.035Z,14.10
2019-05-14T01:59:47.164Z,14.10
2019-05-14T02:02:14.727Z,14.10
2019-05-14T02:04:42.960Z,14.10
2019-05-14T02:07:11.784Z,14.00
2019-05-14T02:09:41.785Z,14.10
2019-05-14T02:12:11.621Z,14.00
2019-05-14T02:14:42.135Z,14.00
2019-05-14T02:17:08.877Z,14.00
2019-05-14T02:19:37.357Z,13.90
2019-05-14T02:22:08.366Z,13.90
2019-05-14T02:24:36.247Z,13.90
2019-05-14T02:27:03.989Z,13.90
2019-05-14T02:29:32.331Z,13.90
2019-05-14T02:32:00.037Z,13.90
2019-05-14T02:34:29.937Z,13.80
2019-05-14T02:37:00.197Z,13.80
2019-05-14T02:39:29.008Z,13.80
2019-05-14T02:41:58.764Z,13.80
2019-05-14T02:44:25.665Z,13.80
2019-05-14T02:46:53.286Z,13.80
2019-05-14T02:49:20.678Z,13.80
2019-05-14T02:51:50.378Z,13.80
2019-05-14T02:54:20.393Z,13.70
2019-05-14T02:56:49.572Z,13.70
2019-05-14T02:59:19.672Z,13.70
2019-05-14T03:01:50.262Z,13.70
2019-05-14T03:04:19.738Z,13.70
2019-05-14T03:06:49.861Z,13.60
2019-05-14T03:09:20.460Z,13.60
2019-05-14T03:11:48.592Z,13.60
2019-05-14T03:14:19.320Z,13.60
2019-05-14T03:16:49.322Z,13.60
2019-05-14T03:19:19.240Z,13.60
2019-05-14T03:21:45.958Z,13.50
2019-05-14T03:24:13.565Z,13.50
2019-05-14T03:26:41.568Z,13.50
2019-05-14T03:29:10.149Z,13.50
2019-05-14T03:31:42.847Z,13.50
2019-05-14T03:34:13.404Z,13.50
2019-05-14T03:36:43.029Z,13.50
2019-05-14T03:39:10.537Z,13.40
2019-05-14T03:41:39.741Z,13.40
2019-05-14T03:44:09.947Z,13.40
2019-05-14T03:46:45.963Z,13.40
2019-05-14T03:49:09.286Z,13.40
2019-05-14T03:51:40.312Z,13.40
2019-05-14T03:54:12.444Z,13.40
2019-05-14T03:56:39.502Z,13.30
2019-05-14T03:59:09.610Z,13.30
2019-05-14T04:01:40.109Z,13.30
2019-05-14T04:04:10.226Z,13.30
2019-05-14T04:06:40.329Z,13.30
2019-05-14T04:09:09.683Z,13.20
2019-05-14T04:11:41.372Z,13.20
2019-05-14T04:14:13.091Z,13.20
2019-05-14T04:16:59.869Z,13.20
2019-05-14T04:19:18.835Z,13.20
2019-05-14T04:21:50.642Z,13.20
2019-05-14T04:24:22.443Z,13.20
2019-05-14T04:27:02.114Z,13.10
2019-05-14T04:29:23.252Z,13.10
2019-05-14T04:31:52.950Z,13.10
2019-05-14T04:34:22.121Z,13.10
2019-05-14T04:36:52.698Z,13.10
2019-05-14T04:39:21.000Z,13.10
2019-05-14T04:42:00.972Z,13.00
2019-05-14T04:44:29.830Z,13.00
2019-05-14T04:47:00.077Z,13.00
2019-05-14T04:49:29.719Z,13.00
2019-05-14T04:51:59.490Z,13.00
2019-05-14T04:54:30.229Z,13.00
2019-05-14T04:57:00.010Z,13.00
2019-05-14T04:59:29.911Z,13.00
2019-05-14T05:02:00.212Z,13.00
2019-05-14T05:04:29.958Z,12.90
2019-05-14T05:06:59.205Z,12.90
2019-05-14T05:09:29.303Z,12.90
2019-05-14T05:11:59.763Z,12.90
2019-05-14T05:14:29.455Z,12.80
2019-05-14T05:16:59.801Z,12.90
2019-05-14T05:19:29.011Z,12.90
2019-05-14T05:21:58.691Z,12.90
2019-05-14T05:24:28.720Z,12.90
2019-05-14T05:26:58.544Z,12.90
2019-05-14T05:29:28.413Z,12.90
2019-05-14T05:31:55.942Z,12.90
2019-05-14T05:34:24.265Z,12.90
2019-05-14T05:36:52.832Z,12.90
2019-05-14T05:39:21.651Z,13.00
2019-05-14T05:41:49.665Z,12.90
2019-05-14T05:44:18.811Z,13.00
2019-05-14T05:46:49.165Z,13.00
2019-05-14T05:49:18.597Z,13.00
2019-05-14T05:51:48.341Z,13.00
2019-05-14T05:54:18.590Z,13.00
2019-05-14T05:56:48.169Z,13.10
2019-05-14T05:59:18.960Z,13.00
2019-05-14T06:01:50.250Z,13.10
2019-05-14T06:04:18.342Z,13.10
2019-05-14T06:06:48.025Z,13.10
2019-05-14T06:09:15.449Z,13.20
2019-05-14T06:11:43.520Z,13.20
2019-05-14T06:14:11.480Z,13.20
2019-05-14T06:16:40.018Z,13.20
2019-05-14T06:19:08.350Z,13.30
2019-05-14T06:21:39.873Z,13.20
2019-05-14T06:24:09.021Z,13.30
2019-05-14T06:26:38.445Z,13.30
2019-05-14T06:29:08.190Z,13.30
2019-05-14T06:31:38.435Z,13.30
2019-05-14T06:34:09.488Z,13.40
2019-05-14T06:36:39.524Z,13.40
2019-05-14T06:39:09.102Z,13.40
2019-05-14T06:41:42.419Z,13.40
2019-05-14T06:44:09.039Z,13.40
2019-05-14T06:46:42.492Z,13.40
2019-05-14T06:49:11.969Z,13.40
2019-05-14T06:51:39.730Z,13.40
2019-05-14T06:54:09.216Z,13.50
2019-05-14T06:56:38.526Z,13.50
2019-05-14T06:59:08.979Z,13.50
2019-05-14T07:01:38.415Z,13.50
2019-05-14T07:04:08.794Z,13.60
2019-05-14T07:06:39.085Z,13.60
2019-05-14T07:09:08.904Z,13.70
2019-05-14T07:11:38.637Z,13.60
2019-05-14T07:14:11.360Z,13.70
2019-05-14T07:16:38.940Z,13.70
2019-05-14T07:19:09.483Z,13.70
2019-05-14T07:21:38.378Z,13.80
2019-05-14T07:24:08.771Z,13.80
2019-05-14T07:26:38.872Z,13.80
2019-05-14T07:29:11.234Z,13.80
2019-05-14T07:31:38.493Z,13.90
2019-05-14T07:34:09.095Z,13.90
2019-05-14T07:36:38.700Z,13.90
2019-05-14T07:39:09.282Z,13.90
2019-05-14T07:41:39.081Z,13.90
2019-05-14T07:44:09.232Z,14.00
2019-05-14T07:46:39.002Z,14.00
2019-05-14T07:49:10.905Z,14.00
2019-05-14T07:51:38.839Z,14.10
2019-05-14T07:54:08.347Z,14.10
2019-05-14T07:56:38.268Z,14.10
2019-05-14T07:59:05.701Z,14.10
2019-05-14T08:01:33.312Z,14.10
2019-05-14T08:04:01.501Z,14.50
2019-05-14T08:06:29.277Z,14.20
2019-05-14T08:08:59.241Z,14.20
2019-05-14T08:11:28.044Z,14.20
2019-05-14T08:13:59.341Z,14.20
2019-05-14T08:16:28.783Z,14.30
2019-05-14T08:18:56.464Z,14.30
2019-05-14T08:21:24.554Z,14.30
2019-05-14T08:23:52.656Z,14.40
2019-05-14T08:26:20.678Z,14.40
2019-05-14T08:28:48.896Z,14.40
2019-05-14T08:31:18.715Z,14.50
2019-05-14T08:33:48.796Z,14.50
2019-05-14T08:36:18.180Z,14.50
2019-05-14T08:38:45.570Z,14.50
2019-05-14T08:41:19.726Z,14.50
2019-05-14T08:43:48.979Z,14.50
2019-05-14T08:46:19.228Z,14.60
2019-05-14T08:48:46.260Z,14.60
2019-05-14T08:51:14.624Z,14.60
2019-05-14T08:53:42.715Z,14.60
2019-05-14T08:56:13.742Z,14.60
2019-05-14T08:58:41.579Z,14.60
2019-05-14T09:01:11.671Z,14.60
2019-05-14T09:03:39.706Z,14.60
2019-05-14T09:06:09.102Z,14.60
2019-05-14T09:08:40.235Z,14.60
2019-05-14T09:11:09.824Z,14.60
2019-05-14T09:13:38.306Z,14.60
2019-05-14T09:16:09.019Z,14.60
2019-05-14T09:18:38.259Z,14.60
2019-05-14T09:21:05.518Z,14.60
2019-05-14T09:23:33.431Z,14.60
2019-05-14T09:26:02.839Z,14.60
2019-05-14T09:28:31.377Z,14.70
2019-05-14T09:30:59.819Z,14.60
2019-05-14T09:33:29.617Z,14.70
2019-05-14T09:36:11.055Z,14.70
2019-05-14T09:38:29.141Z,14.70
2019-05-14T09:41:08.066Z,14.70
2019-05-14T09:43:28.427Z,14.70
2019-05-14T09:45:55.505Z,14.70
2019-05-14T09:48:23.212Z,14.80
2019-05-14T09:50:51.032Z,14.80
2019-05-14T09:53:19.105Z,14.80
2019-05-14T09:55:48.925Z,14.80
2019-05-14T09:58:19.586Z,14.90
2019-05-14T10:00:48.324Z,14.90
2019-05-14T10:03:15.360Z,14.90
2019-05-14T10:05:43.391Z,14.90
2019-05-14T10:08:11.970Z,14.90
2019-05-14T10:10:40.084Z,14.90
2019-05-14T10:13:09.731Z,15.00
2019-05-14T10:15:39.703Z,14.90
2019-05-14T10:18:11.661Z,15.00
2019-05-14T10:20:45.172Z,15.00
2019-05-14T10:23:09.269Z,15.00
2019-05-14T10:25:40.211Z,15.00
2019-05-14T10:28:08.619Z,15.00
2019-05-14T10:30:37.112Z,15.10
2019-05-14T10:33:10.399Z,15.10
2019-05-14T10:35:34.481Z,15.10
2019-05-14T10:38:02.975Z,15.20
2019-05-14T10:40:30.633Z,15.20
2019-05-14T10:42:58.501Z,15.20
2019-05-14T10:45:28.761Z,15.20
2019-05-14T10:47:58.581Z,15.20
2019-05-14T10:50:28.806Z,15.30
2019-05-14T10:52:56.050Z,15.30
2019-05-14T10:55:24.528Z,15.40
2019-05-14T10:57:54.408Z,15.40
2019-05-14T11:00:22.074Z,15.40
2019-05-14T11:02:49.545Z,15.50
2019-05-14T11:05:18.753Z,15.50
2019-05-14T11:07:48.222Z,15.50
2019-05-14T11:10:19.813Z,15.60
2019-05-14T11:12:50.123Z,15.60
2019-05-14T11:15:19.148Z,15.70
2019-05-14T11:17:48.749Z,15.70
2019-05-14T11:20:19.220Z,15.70
2019-05-14T11:22:49.003Z,15.80
2019-05-14T11:25:19.428Z,15.80
2019-05-14T11:27:49.137Z,15.80
2019-05-14T11:30:19.044Z,15.80
2019-05-14T11:32:49.044Z,15.90
2019-05-14T11:35:18.975Z,15.90
2019-05-14T11:37:47.880Z,15.90
2019-05-14T11:40:18.746Z,15.90
2019-05-14T11:42:46.061Z,15.90
2019-05-14T11:45:14.124Z,15.90
2019-05-14T11:47:41.836Z,15.90
2019-05-14T11:50:11.093Z,15.90
2019-05-14T11:52:38.913Z,15.90
2019-05-14T11:55:09.062Z,15.90
2019-05-14T11:57:37.545Z,16.00
2019-05-14T12:00:08.491Z,16.00
2019-05-14T12:02:38.554Z,16.10
2019-05-14T12:05:08.863Z,16.10
2019-05-14T12:07:38.808Z,16.20
2019-05-14T12:10:10.248Z,16.20
2019-05-14T12:12:38.031Z,16.30
2019-05-14T12:15:06.149Z,16.30
2019-05-14T12:17:34.579Z,16.30
2019-05-14T12:20:02.344Z,16.40
2019-05-14T12:22:30.093Z,16.40
2019-05-14T12:24:58.446Z,16.50
2019-05-14T12:27:26.499Z,16.50
2019-05-14T12:29:54.530Z,16.50
2019-05-14T12:32:22.176Z,16.60
2019-05-14T12:34:50.082Z,16.60
2019-05-14T12:37:18.703Z,16.60
2019-05-14T12:39:46.820Z,16.60
2019-05-14T12:42:14.787Z,16.60
2019-05-14T12:44:42.474Z,16.70
2019-05-14T12:47:09.896Z,16.70
2019-05-14T12:49:38.804Z,16.80
2019-05-14T12:52:20.990Z,16.80
2019-05-14T12:54:38.603Z,16.90
2019-05-14T12:57:05.461Z,16.90
2019-05-14T12:59:33.546Z,16.90
2019-05-14T13:02:01.995Z,17.00
2019-05-14T13:04:29.785Z,17.00
2019-05-14T13:06:59.708Z,17.10
2019-05-14T13:09:27.562Z,17.10
2019-05-14T13:11:55.328Z,17.20
2019-05-14T13:14:23.068Z,17.20
2019-05-14T13:16:54.456Z,17.20
2019-05-14T13:19:21.173Z,17.30
2019-05-14T13:21:59.380Z,17.30
2019-05-14T13:24:18.836Z,17.30
2019-05-14T13:26:49.187Z,17.40
2019-05-14T13:29:19.133Z,17.40
2019-05-14T13:31:46.245Z,17.50
2019-05-14T13:34:13.742Z,17.50
2019-05-14T13:36:44.791Z,17.60
2019-05-14T13:39:11.385Z,17.60
2019-05-14T13:41:41.827Z,17.60
2019-05-14T13:44:22.779Z,17.70
2019-05-14T13:46:39.265Z,17.70
2019-05-14T13:49:07.141Z,17.70
2019-05-14T13:51:35.114Z,17.70
2019-05-14T13:54:03.509Z,17.80
2019-05-14T13:56:32.113Z,17.80
2019-05-14T13:59:00.507Z,17.90
2019-05-14T14:01:29.781Z,17.90
2019-05-14T14:04:10.305Z,17.90
2019-05-14T14:06:28.363Z,17.90
2019-05-14T14:08:59.099Z,17.90
2019-05-14T14:11:28.617Z,18.00
2019-05-14T14:13:58.409Z,18.00
2019-05-14T14:16:28.379Z,18.00
2019-05-14T14:18:55.983Z,18.00
2019-05-14T14:21:24.531Z,18.10
2019-05-14T14:23:52.140Z,18.10
2019-05-14T14:26:19.997Z,18.10
2019-05-14T14:28:49.257Z,18.10
2019-05-14T14:31:18.911Z,18.10
2019-05-14T14:33:48.758Z,18.20
2019-05-14T14:36:20.015Z,18.20
2019-05-14T14:38:49.319Z,18.30
2019-05-14T14:41:16.112Z,18.30
2019-05-14T14:43:44.649Z,18.40
2019-05-14T14:46:14.256Z,18.40
2019-05-14T14:48:43.692Z,18.50
2019-05-14T14:51:11.643Z,18.50
2019-05-14T14:53:52.480Z,18.50
2019-05-14T14:56:09.922Z,18.60
2019-05-14T14:58:39.190Z,18.70
2019-05-14T15:01:09.097Z,18.70
2019-05-14T15:03:37.026Z,18.80
2019-05-14T15:06:09.293Z,18.90
2019-05-14T15:08:35.494Z,19.10
2019-05-14T15:11:03.048Z,19.10
2019-05-14T15:13:31.059Z,19.20
2019-05-14T15:16:01.144Z,19.30
2019-05-14T15:18:28.923Z,19.50
2019-05-14T15:20:58.860Z,19.60
2019-05-14T15:23:28.606Z,19.80
2019-05-14T15:25:58.950Z,20.00
2019-05-14T15:28:26.884Z,20.20
2019-05-14T15:30:55.875Z,20.40
2019-05-14T15:33:29.233Z,20.60
2019-05-14T15:35:58.128Z,20.90
2019-05-14T15:38:30.072Z,21.20
2019-05-14T15:40:55.605Z,21.50
2019-05-14T15:43:24.027Z,21.90
2019-05-14T15:45:52.324Z,22.20
2019-05-14T15:48:20.767Z,22.40
2019-05-14T15:50:50.166Z,22.50
2019-05-14T15:53:19.491Z,22.60
2019-05-14T15:55:49.045Z,22.70
2019-05-14T15:58:21.261Z,22.70
2019-05-14T16:00:46.452Z,22.70
2019-05-14T16:03:14.355Z,22.70
2019-05-14T16:05:42.868Z,22.70
2019-05-14T16:08:10.963Z,22.70
2019-05-14T16:10:39.867Z,22.60
2019-05-14T16:13:08.928Z,22.60
2019-05-14T16:15:38.933Z,22.60
2019-05-14T16:18:15.430Z,22.50
2019-05-14T16:20:39.193Z,22.50
2019-05-14T16:23:10.533Z,22.50
2019-05-14T16:25:38.040Z,22.40
2019-05-14T16:28:08.554Z,22.30
2019-05-14T16:30:35.975Z,22.30
2019-05-14T16:33:09.346Z,22.10
2019-05-14T16:35:39.110Z,22.00
2019-05-14T16:38:08.378Z,21.90
2019-05-14T16:40:39.266Z,21.80
2019-05-14T16:43:06.201Z,21.60
2019-05-14T16:45:34.256Z,21.50
2019-05-14T16:48:02.417Z,21.30
2019-05-14T16:50:30.224Z,21.20
2019-05-14T16:52:58.870Z,21.10
2019-05-14T16:55:30.271Z,21.00
2019-05-14T16:57:58.265Z,20.90
2019-05-14T17:00:25.930Z,20.90
2019-05-14T17:02:54.198Z,20.80
2019-05-14T17:05:22.547Z,20.70
2019-05-14T17:07:50.347Z,20.70
2019-05-14T17:10:18.273Z,20.70
2019-05-14T17:12:53.566Z,20.40
2019-05-14T17:15:18.120Z,20.60
2019-05-14T17:17:48.254Z,20.50
2019-05-14T17:20:15.992Z,20.50
2019-05-14T17:22:44.112Z,20.40
2019-05-14T17:25:26.330Z,20.40
2019-05-14T17:27:41.998Z,20.30
2019-05-14T17:30:10.633Z,20.30
2019-05-14T17:32:39.468Z,20.20
2019-05-14T17:35:08.286Z,20.20
2019-05-14T17:37:39.167Z,20.10
2019-05-14T17:40:09.431Z,20.10
2019-05-14T17:42:39.365Z,20.00
2019-05-14T17:45:08.506Z,19.90
2019-05-14T17:47:38.786Z,19.80
2019-05-14T17:50:07.194Z,19.80
2019-05-14T17:52:43.316Z,19.70
2019-05-14T17:55:12.171Z,19.70
2019-05-14T17:57:45.192Z,19.60
2019-05-14T18:00:09.478Z,19.60
2019-05-14T18:02:37.623Z,19.50
2019-05-14T18:05:05.517Z,19.50
2019-05-14T18:07:33.545Z,19.40
2019-05-14T18:10:01.436Z,19.30
2019-05-14T18:12:30.564Z,19.30
2019-05-14T18:14:59.615Z,19.20
2019-05-14T18:17:29.568Z,19.20
2019-05-14T18:19:58.901Z,19.10
2019-05-14T18:22:28.640Z,19.10
2019-05-14T18:24:59.107Z,19.00
2019-05-14T18:27:29.221Z,19.00
2019-05-14T18:29:59.099Z,19.00
2019-05-14T18:32:26.283Z,18.90
2019-05-14T18:34:54.589Z,18.80
2019-05-14T18:37:22.794Z,18.80
2019-05-14T18:39:50.370Z,18.80
2019-05-14T18:42:19.092Z,18.80
2019-05-14T18:44:46.626Z,18.70
2019-05-14T18:47:16.964Z,18.70
2019-05-14T18:49:44.517Z,18.60
2019-05-14T18:52:12.305Z,18.60
2019-05-14T18:54:40.058Z,18.50
2019-05-14T18:57:11.964Z,18.50
2019-05-14T18:59:39.080Z,18.50
2019-05-14T19:02:08.580Z,18.50
2019-05-14T19:04:38.205Z,18.40
2019-05-14T19:07:05.826Z,18.30
2019-05-14T19:09:33.602Z,18.30
2019-05-14T19:12:01.475Z,18.30
2019-05-14T19:14:29.655Z,18.20
2019-05-14T19:16:58.466Z,18.20
2019-05-14T19:19:29.361Z,18.10
2019-05-14T19:21:58.383Z,18.10
2019-05-14T19:24:28.671Z,18.10
2019-05-14T19:26:59.338Z,18.00
2019-05-14T19:29:28.147Z,18.00
2019-05-14T19:31:55.828Z,18.00
2019-05-14T19:34:23.579Z,17.90
2019-05-14T19:36:51.786Z,17.90
2019-05-14T19:39:19.359Z,17.80
2019-05-14T19:41:48.404Z,17.80
2019-05-14T19:44:19.068Z,17.70
2019-05-14T19:46:49.243Z,17.70
2019-05-14T19:49:18.450Z,17.70
2019-05-14T19:51:48.276Z,17.60
2019-05-14T19:54:19.185Z,17.60
2019-05-14T19:56:53.287Z,17.60
2019-05-14T19:59:19.423Z,17.50
2019-05-14T20:01:48.389Z,17.50
2019-05-14T20:04:18.122Z,17.50
2019-05-14T20:06:49.437Z,17.40
2019-05-14T20:09:18.942Z,17.40
2019-05-14T20:11:48.874Z,17.40
2019-05-14T20:14:16.269Z,17.30
2019-05-14T20:16:44.550Z,17.30
2019-05-14T20:19:12.117Z,17.30
2019-05-14T20:21:39.782Z,17.30
2019-05-14T20:24:07.663Z,17.20
2019-05-14T20:26:39.163Z,17.20
2019-05-14T20:29:08.734Z,17.20
2019-05-14T20:31:38.768Z,17.10
2019-05-14T20:34:08.344Z,17.10
2019-05-14T20:36:38.778Z,17.10
2019-05-14T20:39:08.483Z,17.00
2019-05-14T20:41:38.224Z,17.00
2019-05-14T20:44:05.881Z,17.00
2019-05-14T20:46:33.555Z,17.00
2019-05-14T20:49:01.219Z,16.90
2019-05-14T20:51:30.431Z,16.90
2019-05-14T20:53:58.145Z,16.90
2019-05-14T20:56:30.314Z,16.90
2019-05-14T20:58:58.977Z,16.80
2019-05-14T21:01:28.933Z,16.80
2019-05-14T21:03:59.267Z,16.80
2019-05-14T21:06:28.056Z,16.80
2019-05-14T21:08:55.588Z,16.80
2019-05-14T21:11:23.284Z,16.70
2019-05-14T21:13:51.231Z,16.70
2019-05-14T21:16:18.696Z,16.70
2019-05-14T21:18:48.628Z,16.70
2019-05-14T21:21:15.693Z,16.70
2019-05-14T21:23:43.043Z,16.60
2019-05-14T21:26:10.585Z,16.60
2019-05-14T21:28:39.318Z,16.60
2019-05-14T21:31:10.139Z,16.50
2019-05-14T21:33:36.437Z,16.50
2019-05-14T21:36:09.510Z,16.50
2019-05-14T21:38:37.892Z,16.50
2019-05-14T21:41:06.826Z,16.50
2019-05-14T21:43:34.631Z,16.40
2019-05-14T21:46:02.040Z,16.40
2019-05-14T21:48:30.604Z,16.40
2019-05-14T21:51:00.586Z,16.40
2019-05-14T21:53:27.598Z,16.30
2019-05-14T21:55:55.344Z,16.30
2019-05-14T21:58:23.108Z,16.30
2019-05-14T22:00:53.175Z,16.20
2019-05-14T22:03:21.088Z,16.20
2019-05-14T22:05:51.695Z,16.20
2019-05-14T22:08:18.558Z,16.20
2019-05-14T22:10:48.703Z,16.10
2019-05-14T22:13:18.066Z,16.10
2019-05-14T22:15:45.739Z,16.10
2019-05-14T22:18:17.942Z,16.10
2019-05-14T22:20:43.396Z,16.10
2019-05-14T22:23:17.877Z,16.00
2019-05-14T22:25:48.575Z,16.00
2019-05-14T22:28:16.853Z,16.00
2019-05-14T22:30:45.242Z,15.90
2019-05-14T22:33:12.990Z,15.90
2019-05-14T22:35:40.652Z,15.90
2019-05-14T22:38:08.417Z,15.90
2019-05-14T22:40:38.800Z,15.90
2019-05-14T22:43:08.815Z,15.90
2019-05-14T22:45:35.830Z,15.90
2019-05-14T22:48:04.313Z,15.90
2019-05-14T22:50:32.201Z,15.80
2019-05-14T22:52:59.931Z,15.80
2019-05-14T22:55:28.932Z,15.80
2019-05-14T22:57:59.287Z,15.80
2019-05-14T23:00:28.615Z,15.80
2019-05-14T23:02:56.507Z,15.80
2019-05-14T23:05:24.288Z,15.80
2019-05-14T23:07:51.740Z,15.70
2019-05-14T23:10:38.917Z,15.70
2019-05-14T23:13:06.504Z,15.70
2019-05-14T23:15:38.551Z,15.70
2019-05-14T23:18:08.487Z,15.70
2019-05-14T23:20:38.923Z,15.60
2019-05-14T23:23:05.758Z,15.60
2019-05-14T23:25:33.126Z,15.60
2019-05-14T23:28:01.147Z,15.40
2019-05-14T23:30:32.369Z,15.60
2019-05-14T23:33:00.307Z,15.50
2019-05-14T23:35:28.510Z,15.50
2019-05-14T23:37:56.135Z,15.50
2019-05-14T23:40:25.552Z,15.50
2019-05-14T23:42:52.922Z,15.40
2019-05-14T23:45:21.092Z,15.40
2019-05-14T23:47:49.434Z,15.40
2019-05-14T23:50:17.002Z,15.40
2019-05-14T23:52:45.086Z,15.50
2019-05-14T23:55:13.042Z,15.40
2019-05-14T23:57:41.318Z,15.40
